createdAt,value
2017-08-02T00:00:36.476Z,100505
2017-08-02T00:01:35.529Z,100512
2017-08-02T00:02:35.440Z,100515
2017-08-02T00:03:35.953Z,100515
2017-08-02T00:04:35.611Z,100510
2017-08-02T00:05:37.313Z,100512
2017-08-02T00:06:35.614Z,100515
2017-08-02T00:07:35.652Z,100507
2017-08-02T00:08:37.351Z,100514
2017-08-02T00:09:37.829Z,100517
2017-08-02T00:10:35.763Z,100515
2017-08-02T00:11:36.745Z,100515
2017-08-02T00:12:36.747Z,100507
2017-08-02T00:13:37.518Z,100516
2017-08-02T00:14:37.684Z,100514
2017-08-02T00:15:36.238Z,100512
2017-08-02T00:16:36.122Z,100510
2017-08-02T00:17:37.797Z,100513
2017-08-02T00:18:36.181Z,100514
2017-08-02T00:19:36.289Z,100511
2017-08-02T00:20:38.056Z,100514
2017-08-02T00:21:36.667Z,100504
2017-08-02T00:22:36.469Z,100510
2017-08-02T00:23:36.540Z,100505
2017-08-02T00:24:36.558Z,100504
2017-08-02T00:25:38.141Z,100495
2017-08-02T00:26:36.631Z,100501
2017-08-02T00:27:36.867Z,100499
2017-08-02T00:28:38.429Z,100500
2017-08-02T00:29:36.659Z,100496
2017-08-02T00:30:38.505Z,100494
2017-08-02T00:31:37.883Z,100493
2017-08-02T00:32:36.841Z,100493
2017-08-02T00:33:37.242Z,100485
2017-08-02T00:34:37.000Z,100494
2017-08-02T00:35:36.961Z,100493
2017-08-02T00:36:37.106Z,100490
2017-08-02T00:37:37.114Z,100494
2017-08-02T00:38:37.132Z,100497
2017-08-02T00:39:37.354Z,100494
2017-08-02T00:40:38.847Z,100497
2017-08-02T00:41:37.294Z,100488
2017-08-02T00:42:38.174Z,100487
2017-08-02T00:43:38.373Z,100492
2017-08-02T00:44:37.346Z,100484
2017-08-02T00:45:39.323Z,100481
2017-08-02T00:46:37.531Z,100483
2017-08-02T00:47:37.440Z,100481
2017-08-02T00:48:39.246Z,100479
2017-08-02T00:49:38.567Z,100482
2017-08-02T00:50:37.610Z,100474
2017-08-02T00:51:38.976Z,100468
2017-08-02T00:52:37.710Z,100473
2017-08-02T00:53:38.796Z,100472
2017-08-02T00:54:37.765Z,100471
2017-08-02T00:55:39.563Z,100472
2017-08-02T00:56:37.869Z,100467
2017-08-02T00:57:38.145Z,100467
2017-08-02T00:58:39.763Z,100470
2017-08-02T00:59:38.077Z,100473
2017-08-02T01:00:39.133Z,100472
2017-08-02T01:01:39.179Z,100464
2017-08-02T01:02:38.268Z,100465
2017-08-02T01:03:39.534Z,100475
2017-08-02T01:04:39.982Z,100473
2017-08-02T01:05:39.970Z,100472
2017-08-02T01:06:38.329Z,100465
2017-08-02T01:07:38.373Z,100464
2017-08-02T01:08:38.426Z,100469
2017-08-02T01:09:39.778Z,100471
2017-08-02T01:10:38.442Z,100471
2017-08-02T01:11:39.433Z,100474
2017-08-02T01:12:38.588Z,100469
2017-08-02T01:13:38.522Z,100478
2017-08-02T01:14:38.569Z,100477
2017-08-02T01:15:38.969Z,100478
2017-08-02T01:16:38.666Z,100478
2017-08-02T01:17:38.734Z,100475
2017-08-02T01:18:40.544Z,100480
2017-08-02T01:19:38.936Z,100480
2017-08-02T01:20:38.979Z,100471
2017-08-02T01:21:40.992Z,100478
2017-08-02T01:22:39.112Z,100479
2017-08-02T01:23:40.106Z,100477
2017-08-02T01:24:39.099Z,100475
2017-08-02T01:25:39.190Z,100472
2017-08-02T01:26:39.222Z,100464
2017-08-02T01:27:40.078Z,100468
2017-08-02T01:28:39.396Z,100468
2017-08-02T01:29:40.545Z,100472
2017-08-02T01:30:41.201Z,100473
2017-08-02T01:31:40.579Z,100477
2017-08-02T01:32:40.550Z,100474
2017-08-02T01:33:41.608Z,100473
2017-08-02T01:34:39.653Z,100473
2017-08-02T01:35:39.640Z,100464
2017-08-02T01:36:39.763Z,100473
2017-08-02T01:37:40.823Z,100468
2017-08-02T01:38:39.910Z,100468
2017-08-02T01:39:41.851Z,100467
2017-08-02T01:40:41.829Z,100471
2017-08-02T01:41:39.902Z,100468
2017-08-02T01:42:39.974Z,100469
2017-08-02T01:43:40.932Z,100469
2017-08-02T01:44:40.024Z,100468
2017-08-02T01:45:42.032Z,100474
2017-08-02T01:46:40.165Z,100472
2017-08-02T01:47:40.137Z,100471
2017-08-02T01:48:40.229Z,100470
2017-08-02T01:49:40.328Z,100464
2017-08-02T01:50:40.240Z,100469
2017-08-02T01:51:41.341Z,100468
2017-08-02T01:52:40.366Z,100466
2017-08-02T01:53:41.526Z,100473
2017-08-02T01:54:41.598Z,100468
2017-08-02T01:55:42.290Z,100472
2017-08-02T01:56:42.384Z,100472
2017-08-02T01:57:40.908Z,100473
2017-08-02T01:58:40.715Z,100474
2017-08-02T01:59:42.558Z,100474
2017-08-02T02:00:40.973Z,100475
2017-08-02T02:01:40.915Z,100471
2017-08-02T02:02:40.970Z,100474
2017-08-02T02:03:42.339Z,100473
2017-08-02T02:04:42.031Z,100471
2017-08-02T02:05:42.743Z,100476
2017-08-02T02:06:41.163Z,100474
2017-08-02T02:07:43.051Z,100476
2017-08-02T02:08:41.280Z,100475
2017-08-02T02:09:41.706Z,100474
2017-08-02T02:10:42.497Z,100474
2017-08-02T02:11:43.306Z,100475
2017-08-02T02:12:42.609Z,100474
2017-08-02T02:13:43.395Z,100475
2017-08-02T02:14:43.326Z,100476
2017-08-02T02:15:43.104Z,100477
2017-08-02T02:16:42.879Z,100482
2017-08-02T02:17:43.711Z,100473
2017-08-02T02:18:41.919Z,100470
2017-08-02T02:19:42.885Z,100466
2017-08-02T02:20:42.994Z,100470
2017-08-02T02:21:44.136Z,100471
2017-08-02T02:22:42.185Z,100462
2017-08-02T02:23:43.754Z,100470
2017-08-02T02:24:43.083Z,100468
2017-08-02T02:25:42.202Z,100469
2017-08-02T02:26:43.373Z,100470
2017-08-02T02:27:42.617Z,100467
2017-08-02T02:28:43.369Z,100462
2017-08-02T02:29:42.545Z,100470
2017-08-02T02:30:43.425Z,100471
2017-08-02T02:31:42.542Z,100471
2017-08-02T02:32:44.324Z,100466
2017-08-02T02:33:42.832Z,100468
2017-08-02T02:34:43.715Z,100474
2017-08-02T02:35:42.679Z,100476
2017-08-02T02:36:42.861Z,100479
2017-08-02T02:37:44.614Z,100480
2017-08-02T02:38:43.957Z,100480
2017-08-02T02:39:44.965Z,100471
2017-08-02T02:40:43.009Z,100476
2017-08-02T02:41:44.713Z,100474
2017-08-02T02:42:43.131Z,100471
2017-08-02T02:43:44.931Z,100468
2017-08-02T02:44:43.273Z,100461
2017-08-02T02:45:44.493Z,100463
2017-08-02T02:46:43.347Z,100462
2017-08-02T02:47:43.435Z,100458
2017-08-02T02:48:45.147Z,100452
2017-08-02T02:49:43.410Z,100449
2017-08-02T02:50:44.589Z,100449
2017-08-02T02:51:45.571Z,100446
2017-08-02T02:52:45.304Z,100450
2017-08-02T02:53:45.392Z,100452
2017-08-02T02:54:43.818Z,100463
2017-08-02T02:55:45.587Z,100469
2017-08-02T02:56:45.944Z,100468
2017-08-02T02:57:45.537Z,100468
2017-08-02T02:58:44.837Z,100461
2017-08-02T02:59:45.814Z,100463
2017-08-02T03:00:45.118Z,100467
2017-08-02T03:01:44.182Z,100465
2017-08-02T03:02:44.490Z,100465
2017-08-02T03:03:44.198Z,100468
2017-08-02T03:04:45.157Z,100475
2017-08-02T03:05:44.295Z,100475
2017-08-02T03:06:44.306Z,100481
2017-08-02T03:07:44.385Z,100484
2017-08-02T03:08:44.672Z,100485
2017-08-02T03:09:44.485Z,100486
2017-08-02T03:10:44.614Z,100484
2017-08-02T03:11:44.585Z,100470
2017-08-02T03:12:46.115Z,100464
2017-08-02T03:13:44.497Z,100463
2017-08-02T03:14:44.767Z,100459
2017-08-02T03:15:46.268Z,100460
2017-08-02T03:16:44.604Z,100449
2017-08-02T03:17:45.737Z,100465
2017-08-02T03:18:44.769Z,100469
2017-08-02T03:19:44.868Z,100467
2017-08-02T03:20:45.062Z,100461
2017-08-02T03:21:44.869Z,100462
2017-08-02T03:22:44.970Z,100459
2017-08-02T03:23:45.951Z,100451
2017-08-02T03:24:45.009Z,100459
2017-08-02T03:25:45.161Z,100462
2017-08-02T03:26:45.546Z,100467
2017-08-02T03:27:45.159Z,100461
2017-08-02T03:28:45.169Z,100467
2017-08-02T03:29:46.860Z,100460
2017-08-02T03:30:45.389Z,100461
2017-08-02T03:31:45.468Z,100454
2017-08-02T03:32:45.799Z,100452
2017-08-02T03:33:45.484Z,100450
2017-08-02T03:34:45.641Z,100449
2017-08-02T03:35:46.657Z,100452
2017-08-02T03:36:46.627Z,100458
2017-08-02T03:37:47.456Z,100450
2017-08-02T03:38:47.001Z,100458
2017-08-02T03:39:47.566Z,100452
2017-08-02T03:40:45.812Z,100452
2017-08-02T03:41:47.547Z,100451
2017-08-02T03:42:45.938Z,100455
2017-08-02T03:43:47.703Z,100451
2017-08-02T03:44:48.198Z,100457
2017-08-02T03:45:46.187Z,100458
2017-08-02T03:46:46.307Z,100459
2017-08-02T03:47:46.296Z,100461
2017-08-02T03:48:46.371Z,100468
2017-08-02T03:49:47.412Z,100467
2017-08-02T03:50:46.868Z,100461
2017-08-02T03:51:46.573Z,100454
2017-08-02T03:52:47.579Z,100454
2017-08-02T03:53:48.375Z,100449
2017-08-02T03:54:47.821Z,100449
2017-08-02T03:55:47.778Z,100449
2017-08-02T03:56:48.129Z,100446
2017-08-02T03:57:47.035Z,100454
2017-08-02T03:58:47.976Z,100458
2017-08-02T03:59:48.841Z,100461
2017-08-02T04:00:47.238Z,100452
2017-08-02T04:01:48.948Z,100457
2017-08-02T04:02:47.639Z,100456
2017-08-02T04:03:48.297Z,100451
2017-08-02T04:04:49.134Z,100452
2017-08-02T04:05:48.505Z,100447
2017-08-02T04:06:49.294Z,100448
2017-08-02T04:07:47.538Z,100453
2017-08-02T04:08:47.933Z,100452
2017-08-02T04:09:49.238Z,100453
2017-08-02T04:10:48.525Z,100455
2017-08-02T04:11:47.733Z,100458
2017-08-02T04:12:49.335Z,100456
2017-08-02T04:13:47.822Z,100456
2017-08-02T04:14:49.690Z,100458
2017-08-02T04:15:47.788Z,100459
2017-08-02T04:16:49.462Z,100458
2017-08-02T04:17:48.842Z,100460
2017-08-02T04:18:49.748Z,100460
2017-08-02T04:19:49.778Z,100451
2017-08-02T04:20:48.298Z,100454
2017-08-02T04:21:48.131Z,100451
2017-08-02T04:22:48.105Z,100456
2017-08-02T04:23:49.906Z,100457
2017-08-02T04:24:48.304Z,100460
2017-08-02T04:25:50.089Z,100458
2017-08-02T04:26:50.400Z,100462
2017-08-02T04:27:48.484Z,100460
2017-08-02T04:28:49.443Z,100456
2017-08-02T04:29:48.644Z,100459
2017-08-02T04:30:48.708Z,100454
2017-08-02T04:31:48.807Z,100454
2017-08-02T04:32:50.730Z,100459
2017-08-02T04:33:49.882Z,100451
2017-08-02T04:34:48.830Z,100448
2017-08-02T04:35:49.035Z,100454
2017-08-02T04:36:49.071Z,100455
2017-08-02T04:37:49.060Z,100454
2017-08-02T04:38:49.223Z,100459
2017-08-02T04:39:50.996Z,100462
2017-08-02T04:40:50.305Z,100453
2017-08-02T04:41:50.422Z,100458
2017-08-02T04:42:50.352Z,100460
2017-08-02T04:43:50.542Z,100455
2017-08-02T04:44:50.428Z,100467
2017-08-02T04:45:51.339Z,100471
2017-08-02T04:46:51.248Z,100468
2017-08-02T04:47:49.653Z,100465
2017-08-02T04:48:50.620Z,100465
2017-08-02T04:49:50.657Z,100465
2017-08-02T04:50:50.823Z,100463
2017-08-02T04:51:51.551Z,100464
2017-08-02T04:52:50.791Z,100459
2017-08-02T04:53:50.829Z,100466
2017-08-02T04:54:50.032Z,100467
2017-08-02T04:55:51.928Z,100468
2017-08-02T04:56:50.119Z,100470
2017-08-02T04:57:50.115Z,100470
2017-08-02T04:58:50.264Z,100466
2017-08-02T04:59:50.248Z,100468
2017-08-02T05:00:50.349Z,100472
2017-08-02T05:01:51.320Z,100474
2017-08-02T05:02:50.590Z,100479
2017-08-02T05:03:52.194Z,100480
2017-08-02T05:04:52.364Z,100478
2017-08-02T05:05:52.438Z,100483
2017-08-02T05:06:50.653Z,100484
2017-08-02T05:07:51.738Z,100481
2017-08-02T05:08:50.680Z,100479
2017-08-02T05:09:50.796Z,100481
2017-08-02T05:10:52.481Z,100475
2017-08-02T05:11:50.750Z,100484
2017-08-02T05:12:51.734Z,100484
2017-08-02T05:13:50.920Z,100484
2017-08-02T05:14:52.586Z,100481
2017-08-02T05:15:52.662Z,100478
2017-08-02T05:16:51.155Z,100478
2017-08-02T05:17:51.349Z,100480
2017-08-02T05:18:51.144Z,100480
2017-08-02T05:19:51.232Z,100477
2017-08-02T05:20:52.211Z,100470
2017-08-02T05:21:51.263Z,100471
2017-08-02T05:22:51.307Z,100477
2017-08-02T05:23:51.494Z,100475
2017-08-02T05:24:51.458Z,100475
2017-08-02T05:25:52.469Z,100470
2017-08-02T05:26:51.621Z,100475
2017-08-02T05:27:51.742Z,100473
2017-08-02T05:28:51.770Z,100478
2017-08-02T05:29:52.726Z,100478
2017-08-02T05:30:51.947Z,100474
2017-08-02T05:31:56.598Z,100480
2017-08-02T05:33:51.979Z,100490
2017-08-02T05:34:52.958Z,100490
2017-08-02T05:35:53.124Z,100495
2017-08-02T05:36:53.116Z,100495
2017-08-02T05:37:53.490Z,100496
2017-08-02T05:38:52.941Z,100498
2017-08-02T05:39:52.693Z,100492
2017-08-02T05:40:54.854Z,100498
2017-08-02T05:41:53.472Z,100502
2017-08-02T05:42:54.122Z,100497
2017-08-02T05:43:52.597Z,100496
2017-08-02T05:44:52.608Z,100493
2017-08-02T05:45:54.370Z,100498
2017-08-02T05:46:52.682Z,100494
2017-08-02T05:47:54.453Z,100484
2017-08-02T05:48:52.846Z,100485
2017-08-02T05:49:52.824Z,100490
2017-08-02T05:50:52.922Z,100485
2017-08-02T05:51:52.917Z,100475
2017-08-02T05:52:53.009Z,100485
2017-08-02T05:53:53.096Z,100489
2017-08-02T05:54:54.781Z,100490
2017-08-02T05:55:53.003Z,100488
2017-08-02T05:56:53.095Z,100490
2017-08-02T05:57:54.803Z,100486
2017-08-02T05:58:53.294Z,100494
2017-08-02T05:59:54.979Z,100497
2017-08-02T06:00:54.231Z,100494
2017-08-02T06:01:53.603Z,100499
2017-08-02T06:02:53.510Z,100501
2017-08-02T06:03:54.512Z,100502
2017-08-02T06:04:55.179Z,100499
2017-08-02T06:05:54.562Z,100507
2017-08-02T06:06:53.686Z,100512
2017-08-02T06:07:53.735Z,100516
2017-08-02T06:08:53.841Z,100513
2017-08-02T06:09:53.876Z,100511
2017-08-02T06:10:53.897Z,100514
2017-08-02T06:11:53.842Z,100507
2017-08-02T06:12:54.851Z,100506
2017-08-02T06:13:54.877Z,100502
2017-08-02T06:14:54.069Z,100503
2017-08-02T06:15:54.931Z,100506
2017-08-02T06:16:55.854Z,100514
2017-08-02T06:17:55.117Z,100508
2017-08-02T06:18:55.292Z,100512
2017-08-02T06:19:55.304Z,100508
2017-08-02T06:20:54.262Z,100505
2017-08-02T06:21:55.997Z,100505
2017-08-02T06:22:54.795Z,100505
2017-08-02T06:23:54.896Z,100503
2017-08-02T06:24:56.238Z,100509
2017-08-02T06:25:55.635Z,100514
2017-08-02T06:26:54.733Z,100518
2017-08-02T06:27:54.811Z,100518
2017-08-02T06:28:54.746Z,100510
2017-08-02T06:29:54.799Z,100511
2017-08-02T06:30:56.482Z,100502
2017-08-02T06:31:54.975Z,100517
2017-08-02T06:32:54.948Z,100513
2017-08-02T06:33:55.044Z,100522
2017-08-02T06:34:56.022Z,100515
2017-08-02T06:35:56.187Z,100519
2017-08-02T06:36:56.875Z,100519
2017-08-02T06:37:55.330Z,100517
2017-08-02T06:38:55.392Z,100514
2017-08-02T06:39:56.335Z,100511
2017-08-02T06:40:55.417Z,100512
2017-08-02T06:41:59.169Z,100503
2017-08-02T06:42:58.557Z,100511
2017-08-02T06:43:57.247Z,100511
2017-08-02T06:44:57.849Z,100504
2017-08-02T06:45:57.105Z,100499
2017-08-02T06:46:57.520Z,100496
2017-08-02T06:47:55.738Z,100500
2017-08-02T06:48:57.463Z,100501
2017-08-02T06:49:56.817Z,100502
2017-08-02T06:50:56.013Z,100507
2017-08-02T06:51:57.743Z,100508
2017-08-02T06:52:56.963Z,100508
2017-08-02T06:53:56.106Z,100504
2017-08-02T06:54:57.730Z,100505
2017-08-02T06:55:56.139Z,100502
2017-08-02T06:56:57.314Z,100506
2017-08-02T06:57:56.292Z,100502
2017-08-02T06:58:56.395Z,100506
2017-08-02T06:59:57.395Z,100510
2017-08-02T07:00:58.180Z,100511
2017-08-02T07:01:56.405Z,100512
2017-08-02T07:02:58.194Z,100510
2017-08-02T07:03:56.447Z,100513
2017-08-02T07:04:56.602Z,100517
2017-08-02T07:05:56.549Z,100519
2017-08-02T07:06:58.270Z,100521
2017-08-02T07:07:57.992Z,100524
2017-08-02T07:08:57.735Z,100524
2017-08-02T07:09:57.715Z,100528
2017-08-02T07:10:57.824Z,100526
2017-08-02T07:11:58.464Z,100523
2017-08-02T07:12:56.915Z,100527
2017-08-02T07:13:57.940Z,100524
2017-08-02T07:14:56.902Z,100525
2017-08-02T07:15:59.252Z,100520
2017-08-02T07:16:57.053Z,100523
2017-08-02T07:17:58.792Z,100521
2017-08-02T07:18:57.203Z,100517
2017-08-02T07:19:58.948Z,100521
2017-08-02T07:20:57.432Z,100513
2017-08-02T07:21:58.321Z,100515
2017-08-02T07:22:57.316Z,100516
2017-08-02T07:23:59.844Z,100517
2017-08-02T07:24:57.413Z,100508
2017-08-02T07:25:57.484Z,100511
2017-08-02T07:26:59.298Z,100506
2017-08-02T07:27:59.380Z,100513
2017-08-02T07:29:00.655Z,100512
2017-08-02T07:29:58.961Z,100511
2017-08-02T07:30:57.781Z,100514
2017-08-02T07:31:58.771Z,100512
2017-08-02T07:32:58.964Z,100516
2017-08-02T07:33:58.948Z,100510
2017-08-02T07:34:58.053Z,100510
2017-08-02T07:35:58.040Z,100516
2017-08-02T07:36:59.821Z,100519
2017-08-02T07:37:59.343Z,100519
2017-08-02T07:38:58.342Z,100523
2017-08-02T07:39:59.363Z,100525
2017-08-02T07:40:58.428Z,100527
2017-08-02T07:41:58.699Z,100526
2017-08-02T07:42:59.566Z,100523
2017-08-02T07:43:59.765Z,100531
2017-08-02T07:44:59.617Z,100516
2017-08-02T07:45:58.660Z,100527
2017-08-02T07:46:58.717Z,100526
2017-08-02T07:47:58.788Z,100525
2017-08-02T07:49:00.445Z,100523
2017-08-02T07:49:59.025Z,100526
2017-08-02T07:50:58.972Z,100536
2017-08-02T07:52:00.896Z,100531
2017-08-02T07:52:59.135Z,100525
2017-08-02T07:53:59.400Z,100524
2017-08-02T07:55:00.866Z,100523
2017-08-02T07:55:59.249Z,100528
2017-08-02T07:57:00.234Z,100527
2017-08-02T07:57:59.334Z,100528
2017-08-02T07:58:59.351Z,100517
2017-08-02T07:59:59.417Z,100522
2017-08-02T08:00:59.392Z,100526
2017-08-02T08:01:59.600Z,100530
2017-08-02T08:03:00.663Z,100521
2017-08-02T08:03:59.529Z,100533
2017-08-02T08:05:00.741Z,100519
2017-08-02T08:06:01.386Z,100519
2017-08-02T08:07:00.839Z,100516
2017-08-02T08:08:01.483Z,100520
2017-08-02T08:09:00.812Z,100519
2017-08-02T08:10:01.740Z,100518
2017-08-02T08:11:01.785Z,100513
2017-08-02T08:12:01.106Z,100506
2017-08-02T08:13:00.213Z,100507
2017-08-02T08:14:00.448Z,100511
2017-08-02T08:15:01.333Z,100516
2017-08-02T08:16:01.317Z,100515
2017-08-02T08:17:01.973Z,100513
2017-08-02T08:18:02.131Z,100515
2017-08-02T08:19:00.375Z,100518
2017-08-02T08:20:01.304Z,100515
2017-08-02T08:21:00.450Z,100508
2017-08-02T08:22:02.197Z,100504
2017-08-02T08:23:02.172Z,100510
2017-08-02T08:24:01.612Z,100513
2017-08-02T08:25:01.517Z,100516
2017-08-02T08:26:00.758Z,100540
2017-08-02T08:27:02.354Z,100537
2017-08-02T08:28:00.790Z,100528
2017-08-02T08:29:02.389Z,100522
2017-08-02T08:30:00.813Z,100520
2017-08-02T08:31:00.828Z,100536
2017-08-02T08:32:01.427Z,100525
2017-08-02T08:33:02.550Z,100524
2017-08-02T08:34:01.006Z,100529
2017-08-02T08:35:01.092Z,100538
2017-08-02T08:36:02.370Z,100531
2017-08-02T08:37:01.151Z,100535
2017-08-02T08:38:01.733Z,100538
2017-08-02T08:39:03.216Z,100540
2017-08-02T08:40:01.286Z,100550
2017-08-02T08:41:01.219Z,100549
2017-08-02T08:42:02.216Z,100554
2017-08-02T08:43:02.034Z,100550
2017-08-02T08:44:02.114Z,100547
2017-08-02T08:45:01.500Z,100563
2017-08-02T08:46:05.947Z,100557
2017-08-02T08:47:01.561Z,100582
2017-08-02T08:48:01.617Z,100559
2017-08-02T08:49:02.685Z,100560
2017-08-02T08:52:04.832Z,100566
2017-08-02T08:53:03.927Z,100566
2017-08-02T08:54:01.927Z,100559
2017-08-02T08:56:11.263Z,100550
2017-08-02T08:58:01.998Z,100558
2017-08-02T09:04:31.499Z,100564
2017-08-02T09:05:30.853Z,100558
2017-08-02T09:06:30.566Z,100562
2017-08-02T09:07:30.290Z,100567
2017-08-02T09:08:30.213Z,100571
2017-08-02T09:09:30.236Z,100549
2017-08-02T09:10:30.244Z,100560
2017-08-02T09:11:31.872Z,100562
2017-08-02T09:12:31.221Z,100568
2017-08-02T09:13:31.918Z,100575
2017-08-02T09:14:32.126Z,100565
2017-08-02T09:15:31.154Z,100571
2017-08-02T09:16:30.531Z,100573
2017-08-02T09:17:30.602Z,100578
2017-08-02T09:18:31.726Z,100577
2017-08-02T09:19:32.441Z,100571
2017-08-02T09:20:31.644Z,100580
2017-08-02T09:21:31.857Z,100585
2017-08-02T09:22:32.647Z,100586
2017-08-02T09:23:32.634Z,100578
2017-08-02T09:24:31.995Z,100581
2017-08-02T09:25:32.771Z,100587
2017-08-02T09:26:32.891Z,100582
2017-08-02T09:27:32.103Z,100574
2017-08-02T09:28:33.646Z,100606
2017-08-02T09:29:32.549Z,100594
2017-08-02T09:30:31.976Z,100592
2017-08-02T09:31:31.335Z,100594
2017-08-02T09:32:33.638Z,100600
2017-08-02T09:33:31.501Z,100597
2017-08-02T09:34:31.506Z,100592
2017-08-02T09:35:33.456Z,100590
2017-08-02T09:36:32.595Z,100592
2017-08-02T09:37:32.759Z,100589
2017-08-02T09:38:34.160Z,100593
2017-08-02T09:39:31.876Z,100588
2017-08-02T09:40:32.563Z,100592
2017-08-02T09:41:33.602Z,100594
2017-08-02T09:42:34.272Z,100595
2017-08-02T09:43:32.913Z,100594
2017-08-02T09:44:33.699Z,100589
2017-08-02T09:45:32.243Z,100589
2017-08-02T09:46:33.279Z,100592
2017-08-02T09:47:32.176Z,100593
2017-08-02T09:48:32.547Z,100594
2017-08-02T09:49:32.341Z,100597
2017-08-02T09:50:32.429Z,100605
2017-08-02T09:51:32.725Z,100589
2017-08-02T09:52:32.568Z,100596
2017-08-02T09:53:33.554Z,100592
2017-08-02T09:54:35.340Z,100596
2017-08-02T09:55:32.641Z,100598
2017-08-02T09:56:35.178Z,100584
2017-08-02T09:57:33.723Z,100601
2017-08-02T09:58:33.850Z,100605
2017-08-02T09:59:33.022Z,100600
2017-08-02T10:00:33.005Z,100605
2017-08-02T10:01:33.743Z,100598
2017-08-02T10:02:33.199Z,100611
2017-08-02T10:03:34.978Z,100604
2017-08-02T10:04:33.306Z,100606
2017-08-02T10:05:33.366Z,100602
2017-08-02T10:06:35.245Z,100609
2017-08-02T10:07:36.265Z,100612
2017-08-02T10:08:35.036Z,100618
2017-08-02T10:09:34.588Z,100605
2017-08-02T10:10:33.597Z,100606
2017-08-02T10:11:34.651Z,100597
2017-08-02T10:12:33.573Z,100605
2017-08-02T10:13:35.543Z,100607
2017-08-02T10:14:34.162Z,100595
2017-08-02T10:15:33.614Z,100600
2017-08-02T10:16:34.865Z,100597
2017-08-02T10:17:34.884Z,100605
2017-08-02T10:18:35.486Z,100596
2017-08-02T10:19:35.750Z,100602
2017-08-02T10:20:35.033Z,100598
2017-08-02T10:21:35.802Z,100598
2017-08-02T10:22:35.131Z,100597
2017-08-02T10:23:36.435Z,100589
2017-08-02T10:24:36.438Z,100594
2017-08-02T10:25:34.095Z,100589
2017-08-02T10:26:34.229Z,100593
2017-08-02T10:27:34.997Z,100595
2017-08-02T10:28:34.240Z,100594
2017-08-02T10:29:36.063Z,100586
2017-08-02T10:30:34.605Z,100598
2017-08-02T10:31:36.089Z,100591
2017-08-02T10:32:36.699Z,100584
2017-08-02T10:33:36.385Z,100588
2017-08-02T10:34:35.344Z,100586
2017-08-02T10:35:36.329Z,100562
2017-08-02T10:36:34.868Z,100586
2017-08-02T10:37:34.728Z,100583
2017-08-02T10:38:34.978Z,100587
2017-08-02T10:39:35.579Z,100584
2017-08-02T10:40:35.918Z,100580
2017-08-02T10:41:34.852Z,100578
2017-08-02T10:42:34.968Z,100578
2017-08-02T10:43:36.051Z,100580
2017-08-02T10:44:34.943Z,100582
2017-08-02T10:45:37.933Z,100579
2017-08-02T10:46:36.068Z,100575
2017-08-02T10:47:35.177Z,100576
2017-08-02T10:48:36.835Z,100576
2017-08-02T10:49:35.334Z,100572
2017-08-02T10:50:35.403Z,100574
2017-08-02T10:51:36.268Z,100585
2017-08-02T10:52:37.977Z,100577
2017-08-02T10:53:36.997Z,100582
2017-08-02T10:54:35.431Z,100576
2017-08-02T10:55:35.998Z,100587
2017-08-02T10:56:35.548Z,100583
2017-08-02T10:57:36.170Z,100578
2017-08-02T10:58:36.516Z,100579
2017-08-02T10:59:35.710Z,100583
2017-08-02T11:00:36.294Z,100575
2017-08-02T11:01:35.828Z,100579
2017-08-02T11:02:35.915Z,100586
2017-08-02T11:03:37.667Z,100587
2017-08-02T11:04:36.942Z,100586
2017-08-02T11:05:36.086Z,100578
2017-08-02T11:06:36.891Z,100584
2017-08-02T11:07:36.333Z,100588
2017-08-02T11:08:36.346Z,100589
2017-08-02T11:09:37.146Z,100591
2017-08-02T11:10:36.502Z,100587
2017-08-02T11:11:36.555Z,100588
2017-08-02T11:12:38.815Z,100587
2017-08-02T11:13:38.354Z,100588
2017-08-02T11:14:37.408Z,100583
2017-08-02T11:15:36.762Z,100586
2017-08-02T11:16:36.830Z,100588
2017-08-02T11:17:36.769Z,100586
2017-08-02T11:18:38.599Z,100585
2017-08-02T11:19:36.817Z,100583
2017-08-02T11:20:38.488Z,100579
2017-08-02T11:21:36.988Z,100581
2017-08-02T11:22:36.889Z,100580
2017-08-02T11:23:36.900Z,100571
2017-08-02T11:24:36.999Z,100579
2017-08-02T11:25:37.034Z,100578
2017-08-02T11:26:37.567Z,100577
2017-08-02T11:27:37.172Z,100580
2017-08-02T11:28:37.101Z,100578
2017-08-02T11:29:37.860Z,100582
2017-08-02T11:30:37.319Z,100586
2017-08-02T11:31:39.051Z,100570
2017-08-02T11:32:39.093Z,100570
2017-08-02T11:33:38.517Z,100577
2017-08-02T11:34:37.651Z,100583
2017-08-02T11:35:38.598Z,100582
2017-08-02T11:36:39.641Z,100585
2017-08-02T11:37:38.826Z,100577
2017-08-02T11:38:37.869Z,100579
2017-08-02T11:39:38.829Z,100577
2017-08-02T11:40:38.942Z,100576
2017-08-02T11:41:38.066Z,100575
2017-08-02T11:42:38.095Z,100572
2017-08-02T11:43:39.156Z,100569
2017-08-02T11:44:38.189Z,100576
2017-08-02T11:45:39.057Z,100578
2017-08-02T11:46:38.927Z,100578
2017-08-02T11:47:40.374Z,100572
2017-08-02T11:48:39.549Z,100576
2017-08-02T11:49:40.083Z,100580
2017-08-02T11:50:39.219Z,100578
2017-08-02T11:51:39.647Z,100578
2017-08-02T11:52:38.547Z,100581
2017-08-02T11:53:40.955Z,100578
2017-08-02T11:54:39.187Z,100574
2017-08-02T11:55:38.701Z,100571
2017-08-02T11:56:40.892Z,100582
2017-08-02T11:57:40.512Z,100579
2017-08-02T11:58:40.360Z,100576
2017-08-02T11:59:40.823Z,100575
2017-08-02T12:00:39.968Z,100575
2017-08-02T12:01:39.029Z,100573
2017-08-02T12:02:40.081Z,100568
2017-08-02T12:03:39.699Z,100564
2017-08-02T12:04:40.746Z,100560
2017-08-02T12:05:39.195Z,100557
2017-08-02T12:06:39.201Z,100552
2017-08-02T12:07:40.052Z,100554
2017-08-02T12:08:39.614Z,100554
2017-08-02T12:09:40.128Z,100551
2017-08-02T12:10:41.287Z,100555
2017-08-02T12:11:40.909Z,100555
2017-08-02T12:12:41.782Z,100560
2017-08-02T12:13:40.508Z,100558
2017-08-02T12:14:39.689Z,100558
2017-08-02T12:15:39.638Z,100561
2017-08-02T12:16:39.884Z,100554
2017-08-02T12:17:39.858Z,100561
2017-08-02T12:18:39.957Z,100554
2017-08-02T12:19:39.916Z,100555
2017-08-02T12:20:40.313Z,100554
2017-08-02T12:21:39.970Z,100551
2017-08-02T12:22:40.071Z,100550
2017-08-02T12:23:40.870Z,100550
2017-08-02T12:24:41.813Z,100545
2017-08-02T12:25:42.058Z,100546
2017-08-02T12:26:40.318Z,100549
2017-08-02T12:27:42.749Z,100542
2017-08-02T12:28:42.138Z,100536
2017-08-02T12:29:41.406Z,100536
2017-08-02T12:30:42.080Z,100533
2017-08-02T12:31:41.125Z,100524
2017-08-02T12:32:41.381Z,100534
2017-08-02T12:33:42.215Z,100534
2017-08-02T12:34:40.542Z,100535
2017-08-02T12:35:42.421Z,100538
2017-08-02T12:36:42.501Z,100539
2017-08-02T12:37:42.409Z,100538
2017-08-02T12:38:43.758Z,100535
2017-08-02T12:39:41.785Z,100542